Aeroporto :
LOGIN :

Iscrizione | Disclaimer

   EN    FR    IT 

 










Sommario :    VFR   VFR Marginale   IFR   IFR Intensivo   IFR Molto Intensivo
Visibilità : 
Base nubi : 
>= 8 km
>= 3000ft
5 / 8 km
1000 / 3000 ft
1500m / 5 km
500 / 1000 ft
800 / 1500m
200 / 500 ft
< 800m
< 200 ft
Simboli :   Temporali  Nebbia  Neve Forte  Precipitazioni Forti  Vento > 20 kt
SIGMETs :   Varie  Temporali  Ghiacco  Turbolenza  Onda orograficha  Ceneri Vulcaniche







- Altitudine del aeroporto : 3 ft
- Codice IATA : LWR


EHLW - Leuuwarden Air Base

ULTIMO METAR :
  • 230555Z AUTO 18005KT 140V220 6000 BR OVC230 15/14 Q1025 WHT 20005KT 7000 NSC

METARs OBSOLETI :
  • 230525Z AUTO 18006KT 160V220 5000 BR OVC260 14/13 Q1025 WHT
  • 230455Z AUTO 19005KT 170V230 7000 BR OVC310 13/13 Q1025 WHT
  • 230425Z AUTO 19005KT 9000 BR OVC300 13/13 Q1025 BLU
  • 230355Z AUTO 19005KT 9999 OVC290 14/12 Q1024 BLU
  • 230325Z AUTO 19005KT 9999 OVC330 13/11 Q1024 BLU

TAF TAF EHLW
Valido dal 23 a 05 ore il 23 a 17 ore UTC


230421Z 2305/2317 18005KT CAVOK
BECMG 2314/2316 33005KT
Nessun NOTAM noto per questo aeroporto.



MetMap, La meteo Aeronautica in un colpo d'occhio ! - Copyright ORBIFLY Dicembre 2007 - Disclaimer

ORBIFLY MET'MAP TEAM :

Programmazione e sviluppo : Alexandra Zaïnal
Concezione e sviluppo : Baudouin d'Aumeries
Co-Programmazione e sviluppo : Marc-Olivier Méhu
Supporto tecnico e logistico : Manuel Goepfert
Aiuto per la traduzione : Arnaldo La Scala

Contatto : metmap@orbifly.com




FONTI E CREDITI :

   NOAA